Anton, CO

7:15 PM MDT on July 25, 2014 (GMT -0600)
Cope, Colorado (KCOCOPE2) Elev 4423 ft | 39.67 °N, 102.85 °W | Change Station

Current weather conditions updated 10 minutes ago

Scattered Clouds
Scattered Clouds
85.8 °F
Feels Like 86 °F
N
0.0
Wind Variable Wind from NNE

Tomorrow is forecast to be Cooler than today. Thunderstorms early tomorrow night.

Today
High -- | Low -- °F
--% Chance of Precip.
Yesterday
High -- | Low -- °F
Precip. -- in
5:45 AM 8:12 PM
Waning Crescent, 1% visible
Pressure 29.82 in
Visibility 10.0 miles
Clouds Few 8000 ft
Scattered Clouds 11000 ft
Heat Index 86 °F
Dew Point 62 °F
Humidity 45%
Rainfall 0.00 in
Snow Depth Not available.
UV 1 out of 12
Pollen 7.10 out of 12
Air Quality Not available.
Flu Activity Not available.
METAR KAKO 260053Z AUTO VRB05KT 10SM FEW080 SCT110 32/08 A3003 RMK AO2 SLP097 T03170078

More Conditions Fewer Conditions

Pressure 29.82 in
Visibility 10.0 miles
Clouds Few 8000 ft
Scattered Clouds 11000 ft
Heat Index 86 °F
Dew Point 62 °F
Humidity 45%
Rainfall 0.00 in
Snow Depth Not available.
UV 1 out of 12
Pollen 7.10 out of 12
Air Quality Not available.
Flu Activity Not available.
METAR KAKO 260053Z AUTO VRB05KT 10SM FEW080 SCT110 32/08 A3003 RMK AO2 SLP097 T03170078

More Conditions Fewer Conditions

10-Day Weather Forecast

Almanac

Astronomy

Jul. 25, 2014 Rise Set
Actual Time 5:45 AM MDT 8:12 PM MDT
Civil Twilight 5:15 AM MDT 8:43 PM MDT
Nautical Twilight 4:37 AM MDT 9:21 PM MDT
Astronomical Twilight 3:54 AM MDT 10:03 PM MDT
Moon 4:47 AM MDT (7/25) 7:11 PM MDT (7/25)
Length of Visible Light 15h 28m
Length of Day
14h 26m
Tomorrow will be 1m 46s shorter.
Waning Crescent, 1% of the Moon is Illuminated
Today
Waning Crescent
Jul 26
New
Aug 3
First Quarter
Aug 10
Full
Aug 17
Last Quarter

Today's Extremes

State Highs State Lows

Community

WunderPhotos

Upload Photos

1,737,459 photos uploaded!

Nearby

Snow Depth

Station Depth Elevation
University Camp 0 in 10300 ft
Jackwhacker Gulch 0 in 10960 ft
Grizzly Peak 4 in 11100 ft
Lake Irene 2 in 10700 ft
Never Summer 0 in 10280 ft

Earthquake Activity

City Distance Mag. Time & Date
No recent earthquake activity has been reported nearby.
Minimum magnitude displayed is 2.5.

Coastal Water Temperatures

Place Temperature
No Stations Reporting

Nearby Weather Stations

Station Location Temp. Heat Index Dew Point Humidity Wind Precip. Elev Updated Type
Cope, Colorado, Cope, CO 85.8 °F 86 °F 62 °F 45% NNE  at  0.0 mph - / hr 4423 ft 7:04 PM MDT Normal

Show More Stations Show Fewer Stations